Time;durP1;ratioP1;P1;durP2;ratioP2;P2;SDS_P1;SDS_P2;PMS_P1;PMS_P2;Temp;Humidity;BMP_temperature;BMP_pressure;BME280_temperature;BME280_humidity;BME280_pressure;Samples;Min_cycle;Max_cycle;Signal;HPM_P1;HPM_P2
2022/06/01 00:02:17;;;;;;;4.73;3.43;;;;;;;9.25;100.00;100428.06;4948879;28;20237;-71
2022/06/01 00:04:44;;;;;;;6.00;4.07;;;;;;;9.22;100.00;100430.75;4947992;28;20240;-70
2022/06/01 00:07:12;;;;;;;4.93;3.63;;;;;;;9.01;100.00;100429.50;4947082;28;20300;-70
2022/06/01 00:09:38;;;;;;;4.63;3.87;;;;;;;8.94;100.00;100433.13;4941454;28;20204;-70
2022/06/01 00:12:05;;;;;;;4.17;3.60;;;;;;;9.04;100.00;100436.34;4947619;28;20207;-70
2022/06/01 00:14:33;;;;;;;4.60;4.13;;;;;;;8.95;100.00;100445.22;4942111;28;20271;-71
2022/06/01 00:16:59;;;;;;;4.23;3.83;;;;;;;8.98;100.00;100441.69;4949253;28;20284;-71
2022/06/01 00:19:26;;;;;;;4.40;4.00;;;;;;;8.85;100.00;100441.97;4947762;28;20216;-71
2022/06/01 00:24:47;;;;;;;4.47;4.00;;;;;;;8.73;100.00;100447.44;4911119;28;20247;-71
2022/06/01 00:27:16;;;;;;;4.57;4.07;;;;;;;8.79;100.00;100446.44;4945665;28;20235;-70
2022/06/01 00:29:43;;;;;;;5.33;3.83;;;;;;;8.83;100.00;100443.75;4952076;28;20282;-70
2022/06/01 00:32:11;;;;;;;4.40;4.00;;;;;;;8.81;100.00;100448.13;4948910;28;20242;-70
2022/06/01 00:34:38;;;;;;;4.97;4.20;;;;;;;8.75;100.00;100453.47;4949815;28;20201;-70
2022/06/01 00:37:06;;;;;;;5.63;4.37;;;;;;;8.78;100.00;100457.75;4948022;28;20202;-70
2022/06/01 00:39:32;;;;;;;5.10;4.23;;;;;;;8.66;100.00;100459.69;4946848;28;20611;-71
2022/06/01 00:42:11;;;;;;;5.30;4.80;;;;;;;8.58;100.00;100463.34;4943288;28;20206;-71
2022/06/01 00:44:37;;;;;;;6.20;5.23;;;;;;;8.59;100.00;100465.06;4944697;28;20222;-70
2022/06/01 00:47:04;;;;;;;6.40;5.60;;;;;;;8.57;100.00;100470.31;4948437;28;20301;-70
2022/06/01 00:49:31;;;;;;;7.10;6.00;;;;;;;8.65;100.00;100467.53;4946980;28;20199;-71
2022/06/01 00:51:57;;;;;;;7.57;5.80;;;;;;;8.68;100.00;100472.69;4946618;28;20212;-71
2022/06/01 00:54:23;;;;;;;7.57;5.50;;;;;;;8.74;100.00;100489.88;4945722;28;20603;-70
2022/06/01 00:56:54;;;;;;;6.70;5.57;;;;;;;8.83;100.00;100479.28;4945084;28;20200;-71
2022/06/01 00:59:25;;;;;;;8.17;5.90;;;;;;;8.88;100.00;100485.25;4948091;28;20207;-70
2022/06/01 01:01:55;;;;;;;7.70;6.13;;;;;;;8.90;100.00;100479.13;4946938;28;20196;-71
2022/06/01 01:04:22;;;;;;;6.83;5.73;;;;;;;8.92;100.00;100484.31;4947116;28;20215;-71
2022/06/01 01:06:49;;;;;;;7.80;5.87;;;;;;;8.96;100.00;100493.75;4948557;28;20220;-70
2022/06/01 01:09:16;;;;;;;9.43;5.73;;;;;;;8.94;100.00;100505.94;4956494;28;20214;-70
2022/06/01 01:11:48;;;;;;;7.73;6.00;;;;;;;9.00;100.00;100499.72;4949231;28;20205;-71
2022/06/01 01:14:19;;;;;;;5.57;4.97;;;;;;;8.97;100.00;100500.66;4954495;28;20208;-71
2022/06/01 01:16:48;;;;;;;6.67;5.80;;;;;;;8.95;100.00;100504.16;4948444;28;20231;-70
2022/06/01 01:19:23;;;;;;;6.73;5.60;;;;;;;8.92;100.00;100499.91;4951798;28;20928;-70
2022/06/01 01:21:58;;;;;;;7.13;5.93;;;;;;;8.85;100.00;100501.78;4951062;28;20192;-71
2022/06/01 01:24:31;;;;;;;6.13;5.23;;;;;;;8.84;100.00;100496.59;4952986;28;20232;-70
2022/06/01 01:26:59;;;;;;;6.13;5.30;;;;;;;8.93;100.00;100493.81;4950522;28;20771;-70
2022/06/01 01:29:35;;;;;;;6.33;5.10;;;;;;;8.87;100.00;100488.75;4953945;28;20657;-71
2022/06/01 01:32:02;;;;;;;6.27;5.67;;;;;;;8.83;100.00;100489.69;4950769;28;20208;-70
2022/06/01 01:34:29;;;;;;;5.57;4.97;;;;;;;8.74;100.00;100487.28;4953301;28;20669;-70
2022/06/01 01:37:00;;;;;;;6.97;5.60;;;;;;;8.72;100.00;100489.91;4955543;28;20206;-71
2022/06/01 01:39:30;;;;;;;5.47;4.90;;;;;;;8.77;100.00;100485.47;4952662;28;20622;-70
2022/06/01 01:41:59;;;;;;;6.20;5.23;;;;;;;8.70;100.00;100497.72;4950602;28;20209;-70
2022/06/01 01:44:28;;;;;;;6.27;5.67;;;;;;;8.66;100.00;100484.84;4955733;28;20209;-71
2022/06/01 01:46:56;;;;;;;7.73;5.90;;;;;;;8.60;100.00;100485.84;4951233;28;20226;-70
2022/06/01 01:49:25;;;;;;;6.80;5.23;;;;;;;8.57;100.00;100479.84;4955526;28;20781;-70
2022/06/01 01:51:54;;;;;;;6.07;5.37;;;;;;;8.55;100.00;100481.59;4951318;28;20695;-70
2022/06/01 01:54:31;;;;;;;7.17;5.47;;;;;;;8.52;100.00;100488.56;4951372;28;20196;-71
2022/06/01 01:57:25;;;;;;;6.93;5.60;;;;;;;8.46;100.00;100488.72;4953869;28;20752;-70
2022/06/01 02:00:04;;;;;;;7.10;5.73;;;;;;;8.48;100.00;100486.94;4934805;29;20223;-70
2022/06/01 02:02:38;;;;;;;7.10;5.90;;;;;;;8.43;100.00;100480.97;4953285;28;20700;-70
2022/06/01 02:08:04;;;;;;;6.53;5.27;;;;;;;8.37;100.00;100485.38;4948942;28;20219;-71
2022/06/01 02:13:18;;;;;;;7.00;5.97;;;;;;;8.31;100.00;100481.16;4952000;28;20209;-70
2022/06/01 02:15:47;;;;;;;6.17;5.57;;;;;;;8.30;100.00;100476.84;4944863;28;20234;-70
2022/06/01 02:18:20;;;;;;;7.90;5.87;;;;;;;8.26;100.00;100483.84;4949644;28;20675;-71
2022/06/01 02:20:51;;;;;;;8.37;5.83;;;;;;;8.25;100.00;100489.94;4950982;28;20226;-71
2022/06/01 02:23:19;;;;;;;7.53;5.50;;;;;;;8.17;100.00;100493.56;4943162;28;20664;-71
2022/06/01 02:25:48;;;;;;;6.03;5.13;;;;;;;8.24;100.00;100495.16;4947527;28;20306;-71
2022/06/01 02:28:16;;;;;;;6.07;5.47;;;;;;;8.31;100.00;100494.16;4947360;28;20222;-71
2022/06/01 02:30:45;;;;;;;6.70;5.80;;;;;;;8.20;100.00;100494.34;4951755;28;20207;-71
2022/06/01 02:33:15;;;;;;;6.30;5.50;;;;;;;8.21;100.00;100501.25;4952881;28;20201;-71
2022/06/01 02:35:44;;;;;;;6.17;5.57;;;;;;;8.22;100.00;100494.34;4947765;28;20965;-70
2022/06/01 02:38:16;;;;;;;5.87;5.27;;;;;;;8.29;100.00;100495.94;4948440;28;20209;-71
2022/06/01 02:40:42;;;;;;;7.03;5.53;;;;;;;8.41;100.00;100498.28;4945511;28;20208;-71
2022/06/01 02:43:09;;;;;;;6.27;5.57;;;;;;;8.42;100.00;100500.03;4951194;28;20812;-71
2022/06/01 02:45:35;;;;;;;8.63;5.70;;;;;;;8.39;100.00;100497.47;4950528;28;20731;-70
2022/06/01 02:48:05;;;;;;;7.83;6.67;;;;;;;8.51;100.00;100497.28;4949779;28;20226;-70
2022/06/01 02:50:34;;;;;;;7.63;6.23;;;;;;;8.56;100.00;100498.91;4946641;28;20579;-71
2022/06/01 02:53:01;;;;;;;7.23;6.03;;;;;;;8.58;100.00;100502.31;4949153;28;20193;-71
2022/06/01 02:55:29;;;;;;;7.83;6.43;;;;;;;8.62;100.00;100491.84;4947253;28;20224;-70
2022/06/01 02:57:56;;;;;;;7.30;6.37;;;;;;;8.71;100.00;100511.59;4947572;28;20771;-71
2022/06/01 03:00:26;;;;;;;8.90;6.77;;;;;;;8.77;100.00;100503.66;4946303;28;20226;-70
2022/06/01 03:02:55;;;;;;;8.80;6.87;;;;;;;8.85;100.00;100513.94;4951418;28;20204;-71
2022/06/01 03:05:24;;;;;;;8.40;6.57;;;;;;;8.85;100.00;100511.31;4955246;28;20863;-70
2022/06/01 03:07:52;;;;;;;10.70;6.63;;;;;;;8.91;100.00;100512.03;4944447;28;20217;-70
2022/06/01 03:10:19;;;;;;;10.63;7.30;;;;;;;8.89;100.00;100511.22;4951893;28;20215;-71
2022/06/01 03:12:46;;;;;;;11.07;7.30;;;;;;;8.92;100.00;100512.91;4945464;28;20213;-71
2022/06/01 03:15:15;;;;;;;9.17;7.60;;;;;;;8.98;100.00;100514.50;4949913;28;20227;-71
2022/06/01 03:17:42;;;;;;;12.13;8.13;;;;;;;9.05;100.00;100514.34;4949962;28;20211;-71
2022/06/01 03:20:11;;;;;;;9.23;7.23;;;;;;;9.06;100.00;100510.03;4949651;28;20320;-71
2022/06/01 03:22:41;;;;;;;11.97;8.13;;;;;;;9.12;100.00;100516.81;4947349;28;20212;-71
2022/06/01 03:25:10;;;;;;;12.70;7.63;;;;;;;9.14;100.00;100515.03;4950997;28;20218;-71
2022/06/01 03:27:38;;;;;;;11.37;8.00;;;;;;;9.18;100.00;100519.28;4945130;28;20233;-71
2022/06/01 03:30:07;;;;;;;11.57;8.00;;;;;;;9.26;100.00;100517.38;4950213;28;20237;-71
2022/06/01 03:32:34;;;;;;;11.90;7.83;;;;;;;9.28;100.00;100516.44;4943252;28;20297;-71
2022/06/01 03:35:00;;;;;;;11.07;7.87;;;;;;;9.23;100.00;100510.50;4940720;28;20708;-71
2022/06/01 03:37:27;;;;;;;10.90;7.90;;;;;;;9.28;100.00;100513.81;4945505;28;20210;-71
2022/06/01 03:39:55;;;;;;;13.20;8.27;;;;;;;9.35;100.00;100527.56;4942634;28;20203;-70
2022/06/01 03:42:21;;;;;;;11.60;8.60;;;;;;;9.39;100.00;100513.63;4943364;28;20206;-70
2022/06/01 03:47:33;;;;;;;10.43;8.00;;;;;;;9.47;100.00;100511.66;4943492;28;20333;-71
2022/06/01 03:50:00;;;;;;;11.70;7.87;;;;;;;9.43;100.00;100520.44;4952599;28;20199;-71
2022/06/01 03:52:27;;;;;;;9.50;7.30;;;;;;;9.48;100.00;100520.34;4949076;28;20231;-71
2022/06/01 03:54:54;;;;;;;11.73;8.03;;;;;;;9.53;100.00;100520.22;4946876;28;20221;-71
2022/06/01 03:57:21;;;;;;;12.20;8.60;;;;;;;9.48;100.00;100520.34;4947440;28;21576;-71
2022/06/01 03:59:48;;;;;;;9.63;7.80;;;;;;;9.49;100.00;100516.84;4942842;28;20241;-71
2022/06/01 04:02:14;;;;;;;12.83;8.53;;;;;;;9.54;100.00;100517.59;4946904;28;20217;-71
2022/06/01 04:04:40;;;;;;;11.30;8.87;;;;;;;9.66;100.00;100532.06;4944501;28;20211;-70
2022/06/01 04:07:07;;;;;;;11.30;8.70;;;;;;;9.64;100.00;100529.50;4943715;28;20768;-71
2022/06/01 04:09:33;;;;;;;11.80;8.87;;;;;;;9.64;100.00;100528.66;4946657;28;20207;-70
2022/06/01 04:12:01;;;;;;;12.33;8.70;;;;;;;9.71;100.00;100531.94;4947576;28;20230;-71
2022/06/01 04:14:27;;;;;;;13.00;8.33;;;;;;;9.70;100.00;100533.69;4947059;28;20207;-71
2022/06/01 04:16:54;;;;;;;12.73;9.03;;;;;;;9.75;100.00;100534.44;4944306;28;20213;-71
2022/06/01 04:19:20;;;;;;;12.70;8.90;;;;;;;9.78;100.00;100536.97;4938224;28;20542;-70
2022/06/01 04:21:49;;;;;;;15.67;8.90;;;;;;;9.83;100.00;100531.66;4941805;28;20207;-70
2022/06/01 04:24:19;;;;;;;12.50;9.47;;;;;;;9.93;100.00;100534.91;4948778;28;20202;-71
2022/06/01 04:26:46;;;;;;;12.27;8.40;;;;;;;10.04;100.00;100541.56;4950182;28;20455;-71
2022/06/01 04:29:15;;;;;;;15.67;9.80;;;;;;;10.03;100.00;100531.16;4943106;28;20210;-70
2022/06/01 04:31:42;;;;;;;11.23;8.10;;;;;;;10.08;100.00;100533.63;4945217;28;20618;-71
2022/06/01 04:34:08;;;;;;;13.13;9.20;;;;;;;10.08;100.00;100541.44;4943804;28;20211;-71
2022/06/01 04:36:35;;;;;;;11.30;8.90;;;;;;;10.14;100.00;100539.56;4945527;28;20718;-71
2022/06/01 04:39:01;;;;;;;11.63;8.17;;;;;;;10.22;100.00;100534.16;4949017;28;20702;-71
2022/06/01 04:41:27;;;;;;;13.67;9.27;;;;;;;10.32;100.00;100535.63;4940536;28;20234;-71
2022/06/01 04:43:55;;;;;;;11.93;8.77;;;;;;;10.42;100.00;100536.25;4945692;28;20214;-71
2022/06/01 04:46:23;;;;;;;11.30;8.63;;;;;;;10.43;100.00;100537.97;4943216;28;20223;-71
2022/06/01 04:48:49;;;;;;;11.97;9.10;;;;;;;10.51;100.00;100543.81;4943022;28;20556;-71
2022/06/01 04:51:16;;;;;;;10.60;7.70;;;;;;;10.53;100.00;100541.19;4944845;28;20537;-71
2022/06/01 04:53:43;;;;;;;8.87;7.13;;;;;;;10.55;100.00;100542.00;4941549;28;20215;-71
2022/06/01 04:56:11;;;;;;;9.13;7.37;;;;;;;10.67;100.00;100539.03;4945310;28;20246;-70
2022/06/01 04:58:37;;;;;;;10.60;7.77;;;;;;;10.76;100.00;100538.81;4942176;28;20262;-71
2022/06/01 05:01:03;;;;;;;11.30;7.83;;;;;;;10.74;100.00;100534.53;4943508;28;20219;-71
2022/06/01 05:03:31;;;;;;;10.47;8.43;;;;;;;10.87;100.00;100541.09;4940666;28;20882;-71
2022/06/01 05:05:58;;;;;;;9.70;7.50;;;;;;;10.92;100.00;100538.34;4944590;28;20238;-71
2022/06/01 05:08:24;;;;;;;9.07;7.60;;;;;;;11.01;100.00;100538.09;4943799;28;20231;-71
2022/06/01 05:10:50;;;;;;;8.47;7.20;;;;;;;11.09;100.00;100541.31;4942779;28;20604;-71
2022/06/01 05:13:18;;;;;;;9.60;7.07;;;;;;;11.16;100.00;100537.63;4947465;28;20203;-71
2022/06/01 05:15:47;;;;;;;8.67;6.93;;;;;;;11.30;100.00;100536.38;4937812;28;20224;-71
2022/06/01 05:18:14;;;;;;;9.43;7.10;;;;;;;11.45;100.00;100542.84;4943613;28;20207;-71
2022/06/01 05:20:42;;;;;;;8.47;6.60;;;;;;;11.49;100.00;100545.34;4938981;28;20216;-71
2022/06/01 05:23:09;;;;;;;7.67;6.17;;;;;;;11.49;100.00;100545.34;4943827;28;20208;-71
2022/06/01 05:25:36;;;;;;;8.80;6.53;;;;;;;11.55;100.00;100550.34;4937314;28;20231;-71
2022/06/01 05:28:02;;;;;;;8.83;6.27;;;;;;;11.60;100.00;100552.81;4941042;28;20219;-71
2022/06/01 05:30:29;;;;;;;7.80;6.70;;;;;;;11.65;100.00;100543.09;4943870;28;20201;-71
2022/06/01 05:32:55;;;;;;;8.73;6.63;;;;;;;11.80;100.00;100541.72;4943469;28;20220;-71
2022/06/01 05:35:22;;;;;;;7.07;5.60;;;;;;;11.86;100.00;100548.53;4942157;28;20237;-71
2022/06/01 05:37:50;;;;;;;9.83;6.83;;;;;;;11.92;100.00;100548.34;4940714;28;20194;-71
2022/06/01 05:40:16;;;;;;;7.53;6.00;;;;;;;11.96;100.00;100549.09;4944928;28;20201;-71
2022/06/01 05:42:43;;;;;;;8.57;6.80;;;;;;;12.00;100.00;100545.50;4945332;28;20217;-71
2022/06/01 05:45:10;;;;;;;7.77;6.30;;;;;;;12.06;100.00;100551.38;4930940;28;20307;-71
2022/06/01 05:47:37;;;;;;;7.17;5.60;;;;;;;12.20;100.00;100561.34;4943004;28;20230;-69
2022/06/01 05:50:04;;;;;;;6.77;5.03;;;;;;;12.22;100.00;100554.31;4941073;28;20202;-69
2022/06/01 05:52:30;;;;;;;8.37;6.47;;;;;;;12.30;100.00;100559.28;4940769;28;20733;-69
2022/06/01 05:54:58;;;;;;;6.60;5.23;;;;;;;12.38;100.00;100559.88;4938412;28;20721;-69
2022/06/01 05:57:25;;;;;;;5.97;4.97;;;;;;;12.52;100.00;100553.31;4946567;28;20215;-69
2022/06/01 05:59:51;;;;;;;6.47;5.70;;;;;;;12.53;100.00;100557.66;4940283;28;20220;-69
2022/06/01 06:02:17;;;;;;;8.03;5.47;;;;;;;12.62;100.00;100567.78;4944293;28;20198;-69
2022/06/01 06:04:44;;;;;;;6.30;4.90;;;;;;;12.67;100.00;100564.09;4938861;28;20217;-69
2022/06/01 06:07:10;;;;;;;5.57;4.90;;;;;;;12.68;100.00;100575.38;4946111;28;20212;-69
2022/06/01 06:09:37;;;;;;;5.20;4.60;;;;;;;12.66;100.00;100578.09;4949680;28;20911;-69
2022/06/01 06:12:05;;;;;;;5.93;4.90;;;;;;;12.81;100.00;100576.66;4938249;28;20691;-69
2022/06/01 06:14:32;;;;;;;5.03;4.53;;;;;;;12.93;100.00;100574.50;4945070;28;20890;-69
2022/06/01 06:16:58;;;;;;;4.60;4.20;;;;;;;12.99;100.00;100572.53;4947017;28;20288;-69
2022/06/01 06:19:25;;;;;;;8.33;4.60;;;;;;;13.13;100.00;100568.53;4954429;28;20211;-69
2022/06/01 06:21:51;;;;;;;5.07;4.50;;;;;;;13.24;100.00;100568.97;4952484;28;20217;-69
2022/06/01 06:24:20;;;;;;;6.23;4.50;;;;;;;13.30;100.00;100570.50;4950503;28;20205;-69
2022/06/01 06:26:47;;;;;;;4.73;3.90;;;;;;;13.33;100.00;100581.78;4944841;28;20318;-69
2022/06/01 06:29:18;;;;;;;4.70;4.30;;;;;;;13.34;100.00;100587.84;4945115;28;20697;-69
2022/06/01 06:31:45;;;;;;;6.53;4.03;;;;;;;13.42;100.00;100584.03;4947440;28;20207;-69
2022/06/01 06:34:11;;;;;;;4.10;3.70;;;;;;;13.48;100.00;100589.94;4949192;28;20298;-69
2022/06/01 06:36:38;;;;;;;4.90;4.07;;;;;;;13.57;100.00;100587.81;4948111;28;20241;-69
2022/06/01 06:39:04;;;;;;;4.60;4.10;;;;;;;13.72;100.00;100585.50;4949992;28;20614;-69
2022/06/01 06:41:30;;;;;;;4.03;3.50;;;;;;;13.87;100.00;100582.25;4949069;28;20206;-69
2022/06/01 06:43:57;;;;;;;4.70;3.80;;;;;;;13.76;100.00;100580.06;4952424;28;20210;-69
2022/06/01 06:46:25;;;;;;;7.63;3.70;;;;;;;13.89;100.00;100584.81;4944537;28;20222;-69
2022/06/01 06:48:52;;;;;;;3.33;3.03;;;;;;;14.07;100.00;100585.84;4951493;28;20254;-69
2022/06/01 06:51:20;;;;;;;5.10;3.50;;;;;;;14.25;100.00;100595.56;4944683;28;20203;-69
2022/06/01 06:53:47;;;;;;;4.83;3.53;;;;;;;14.35;100.00;100590.78;4941205;28;20669;-69
2022/06/01 06:56:15;;;;;;;4.97;3.87;;;;;;;14.37;100.00;100594.19;4951452;28;20730;-69
2022/06/01 06:58:42;;;;;;;5.70;3.57;;;;;;;14.43;100.00;100583.44;4943080;28;20199;-69
2022/06/01 07:01:08;;;;;;;3.53;3.23;;;;;;;14.61;100.00;100586.22;4948750;28;20215;-69
2022/06/01 07:03:36;;;;;;;2.97;2.70;;;;;;;14.69;100.00;100584.97;4945864;28;20214;-69
2022/06/01 07:06:17;;;;;;;4.00;3.20;;;;;;;14.76;99.66;100575.91;4943496;28;20226;-69
2022/06/01 07:08:46;;;;;;;4.47;3.13;;;;;;;14.92;97.37;100577.84;4948260;28;20711;-69
2022/06/01 07:11:14;;;;;;;3.23;2.93;;;;;;;15.03;98.79;100577.38;4948525;28;20221;-69
2022/06/01 07:13:40;;;;;;;3.50;2.83;;;;;;;15.08;95.77;100585.88;4944649;28;20210;-69
2022/06/01 07:16:09;;;;;;;3.50;2.90;;;;;;;15.20;94.93;100584.50;4926322;28;20238;-69
2022/06/01 07:18:39;;;;;;;2.77;2.57;;;;;;;15.26;91.38;100592.06;4950222;28;20686;-69
2022/06/01 07:21:05;;;;;;;3.10;2.77;;;;;;;15.45;94.47;100598.16;4941709;28;20232;-69
2022/06/01 07:23:32;;;;;;;3.33;2.63;;;;;;;15.43;89.81;100599.19;4948958;28;20210;-69
2022/06/01 07:25:59;;;;;;;2.93;2.40;;;;;;;15.36;87.87;100598.59;4943445;28;20217;-69
2022/06/01 07:28:25;;;;;;;3.07;2.50;;;;;;;15.44;87.19;100598.22;4945991;28;20221;-69
2022/06/01 07:30:56;;;;;;;2.73;2.47;;;;;;;15.48;87.43;100589.31;4943602;28;20570;-69
2022/06/01 07:33:23;;;;;;;2.93;2.63;;;;;;;15.60;87.48;100601.88;4948335;28;20248;-69
2022/06/01 07:35:51;;;;;;;3.87;2.60;;;;;;;15.62;88.65;100601.75;4944819;28;20236;-69
2022/06/01 07:43:46;;;;;;;2.47;2.27;;;;;;;15.99;87.23;100611.41;4947642;28;20287;-69
2022/06/01 07:46:12;;;;;;;3.00;2.70;;;;;;;16.09;84.06;100615.28;4944904;28;20225;-69
2022/06/01 07:48:39;;;;;;;2.87;2.50;;;;;;;16.14;83.94;100606.31;4943938;28;20609;-69
2022/06/01 07:51:07;;;;;;;2.60;2.40;;;;;;;16.13;80.53;100616.00;4947070;28;20277;-69
2022/06/01 07:53:33;;;;;;;3.70;2.50;;;;;;;16.25;82.52;100611.88;4946093;28;20203;-69
2022/06/01 07:55:59;;;;;;;2.43;2.23;;;;;;;16.30;81.67;100603.78;4942763;28;20227;-69
2022/06/01 07:58:26;;;;;;;2.53;2.33;;;;;;;16.35;81.80;100604.38;4944436;28;20210;-69
2022/06/01 08:00:53;;;;;;;2.57;2.30;;;;;;;16.39;82.70;100600.66;4944360;28;20241;-69
2022/06/01 08:03:20;;;;;;;2.17;1.80;;;;;;;16.47;84.50;100604.59;4949690;28;20228;-69
2022/06/01 08:05:46;;;;;;;2.33;2.13;;;;;;;16.52;81.15;100604.38;4946996;28;20218;-69
2022/06/01 08:08:14;;;;;;;3.67;2.40;;;;;;;16.76;83.46;100597.00;4947804;28;20222;-69
2022/06/01 08:10:41;;;;;;;2.30;2.10;;;;;;;16.95;83.76;100596.06;4944974;28;20210;-69
2022/06/01 08:13:10;;;;;;;2.30;2.10;;;;;;;17.02;79.08;100598.28;4943774;28;20691;-69
2022/06/01 08:15:41;;;;;;;4.00;2.27;;;;;;;17.10;79.83;100602.31;4946923;28;20645;-69
2022/06/01 08:18:08;;;;;;;3.67;2.27;;;;;;;17.26;78.24;100603.16;4940236;28;20207;-69
2022/06/01 08:20:35;;;;;;;2.20;2.00;;;;;;;17.19;77.64;100607.91;4939596;28;20213;-69
2022/06/01 08:23:02;;;;;;;2.10;1.90;;;;;;;17.15;77.49;100609.03;4944495;28;20210;-69
2022/06/01 08:25:30;;;;;;;2.77;2.57;;;;;;;17.16;76.09;100613.34;4945514;28;20229;-69
2022/06/01 08:27:57;;;;;;;2.10;1.80;;;;;;;17.33;74.77;100620.34;4943590;28;20291;-69
2022/06/01 08:30:26;;;;;;;5.00;1.77;;;;;;;17.72;71.14;100626.13;4945604;28;20202;-69
2022/06/01 08:32:53;;;;;;;1.80;1.70;;;;;;;17.94;73.76;100607.31;4939232;28;20694;-69
2022/06/01 08:35:24;;;;;;;1.70;1.60;;;;;;;18.03;71.09;100613.88;4949574;28;20764;-69
2022/06/01 08:37:50;;;;;;;2.70;1.90;;;;;;;18.01;70.13;100615.75;4943569;28;20203;-69
2022/06/01 08:40:21;;;;;;;2.03;1.70;;;;;;;18.05;72.57;100610.22;4946320;28;20194;-69
2022/06/01 08:42:55;;;;;;;2.03;1.53;;;;;;;18.01;70.95;100621.03;4920545;29;20214;-69
2022/06/01 08:45:24;;;;;;;1.97;1.40;;;;;;;18.01;69.09;100607.81;4945326;28;20229;-69
2022/06/01 08:47:51;;;;;;;1.40;1.30;;;;;;;18.08;68.64;100617.97;4947380;28;20277;-69
2022/06/01 08:50:25;;;;;;;1.40;1.30;;;;;;;18.58;68.74;100610.63;4949490;28;20225;-69
2022/06/01 08:52:53;;;;;;;1.40;1.30;;;;;;;18.81;65.79;100619.81;4943367;28;20246;-69
2022/06/01 08:55:19;;;;;;;1.30;1.20;;;;;;;19.14;67.80;100602.88;4945286;28;20221;-69
2022/06/01 08:57:53;;;;;;;1.30;1.20;;;;;;;19.36;62.75;100626.13;4944952;28;20690;-69
2022/06/01 09:00:21;;;;;;;1.87;1.37;;;;;;;19.08;60.33;100622.59;4941988;28;20201;-69
2022/06/01 09:02:54;;;;;;;1.77;1.10;;;;;;;19.11;63.08;100621.56;4946227;28;20213;-69
2022/06/01 09:05:25;;;;;;;2.30;1.33;;;;;;;19.02;61.61;100622.13;4947568;28;20225;-69
2022/06/01 09:07:55;;;;;;;1.20;1.10;;;;;;;18.96;61.94;100625.13;4941116;28;20203;-69
2022/06/01 09:10:38;;;;;;;1.57;1.27;;;;;;;19.05;62.37;100624.56;4941187;28;20215;-69
2022/06/01 09:13:09;;;;;;;2.93;1.30;;;;;;;19.42;62.85;100620.47;4941184;28;20202;-69
2022/06/01 09:15:45;;;;;;;2.47;1.50;;;;;;;19.32;64.27;100615.88;4942262;28;20234;-69
2022/06/01 09:18:11;;;;;;;1.57;1.33;;;;;;;18.86;58.51;100630.97;4940565;28;20217;-69
2022/06/01 09:23:23;;;;;;;1.53;1.43;;;;;;;19.06;61.01;100626.25;4940268;28;20669;-69
2022/06/01 09:25:53;;;;;;;3.83;2.50;;;;;;;19.15;63.27;100628.34;4950516;28;20593;-69
2022/06/01 09:28:23;;;;;;;6.27;4.23;;;;;;;19.28;63.02;100633.72;4943623;28;20731;-69
2022/06/01 09:30:57;;;;;;;1.63;1.50;;;;;;;19.22;60.47;100642.84;4951930;28;20203;-69
2022/06/01 09:33:26;;;;;;;1.87;1.70;;;;;;;19.36;59.61;100628.78;4953053;28;20204;-69
2022/06/01 09:36:04;;;;;;;1.40;1.30;;;;;;;19.63;56.65;100634.13;4944373;28;20241;-69
2022/06/01 09:38:37;;;;;;;1.90;1.70;;;;;;;19.77;59.49;100628.00;4941278;28;20210;-69
2022/06/01 09:41:06;;;;;;;2.57;1.50;;;;;;;19.88;59.68;100627.28;4949085;28;20206;-69
2022/06/01 09:43:34;;;;;;;1.40;1.30;;;;;;;19.94;58.91;100629.53;4944088;28;20638;-69
2022/06/01 09:46:00;;;;;;;1.40;1.30;;;;;;;20.19;57.10;100627.91;4949313;28;20233;-69
2022/06/01 09:48:30;;;;;;;1.37;1.10;;;;;;;20.31;57.71;100624.44;4946801;28;20214;-69
2022/06/01 09:51:04;;;;;;;1.40;1.30;;;;;;;20.19;56.15;100626.13;4951651;28;20203;-69
2022/06/01 09:53:36;;;;;;;3.20;1.90;;;;;;;19.88;55.97;100637.03;4943726;28;20420;-69
2022/06/01 09:56:04;;;;;;;1.40;1.30;;;;;;;19.75;55.96;100635.19;4947330;28;20902;-69
2022/06/01 10:06:52;;;;;;;1.57;1.10;;;;;;;19.71;50.47;100646.03;4940010;28;20230;-69
2022/06/01 10:09:26;;;;;;;1.63;0.90;;;;;;;19.78;52.80;100645.53;4946637;28;20249;-69
2022/06/01 10:11:54;;;;;;;1.20;1.10;;;;;;;19.81;53.49;100641.88;4944635;28;20676;-69
2022/06/01 10:14:24;;;;;;;1.10;1.00;;;;;;;19.91;53.84;100640.31;4945518;28;20208;-69
2022/06/01 10:17:07;;;;;;;1.93;1.03;;;;;;;19.83;52.74;100647.91;4947372;28;20276;-69
2022/06/01 10:19:37;;;;;;;0.87;0.87;;;;;;;19.93;51.73;100646.38;4946657;28;20205;-69
2022/06/01 10:22:11;;;;;;;1.40;1.30;;;;;;;20.05;54.70;100637.63;4946473;28;20203;-68
2022/06/01 10:24:42;;;;;;;1.40;1.10;;;;;;;20.03;55.12;100636.00;4946895;28;20200;-69
2022/06/01 10:27:11;;;;;;;2.73;1.40;;;;;;;19.86;55.38;100631.84;4947282;28;20202;-69
2022/06/01 10:29:45;;;;;;;3.30;1.30;;;;;;;19.73;57.26;100636.19;4949694;28;20830;-69
2022/06/01 10:32:23;;;;;;;1.57;1.23;;;;;;;19.46;53.40;100631.72;4944282;28;20222;-69
2022/06/01 10:34:57;;;;;;;1.13;1.03;;;;;;;19.27;54.28;100632.84;4943948;28;20254;-69
2022/06/01 10:37:35;;;;;;;1.60;1.50;;;;;;;19.28;55.24;100626.63;4951481;28;20194;-69
2022/06/01 10:40:07;;;;;;;1.53;1.33;;;;;;;19.28;54.26;100623.16;4945869;28;20240;-69
2022/06/01 10:45:23;;;;;;;1.60;1.50;;;;;;;19.05;56.79;100599.00;4967693;23;20205;-74
2022/06/01 10:47:56;;;;;;;1.90;1.40;;;;;;;19.03;60.34;100594.75;4963608;28;20252;-72
2022/06/01 10:50:25;;;;;;;1.40;1.30;;;;;;;19.12;57.92;100607.41;4984253;28;20704;-72
2022/06/01 10:52:56;;;;;;;1.40;1.30;;;;;;;19.24;61.85;100609.28;4985300;28;20642;-74
2022/06/01 10:55:26;;;;;;;1.77;1.30;;;;;;;19.28;60.19;100616.06;4985637;28;20863;-74
2022/06/01 10:57:53;;;;;;;1.50;1.10;;;;;;;19.02;55.91;100622.97;4963872;28;20213;-74
2022/06/01 11:00:24;;;;;;;1.30;1.20;;;;;;;18.89;56.69;100619.38;4971801;28;20197;-73
2022/06/01 11:03:23;;;;;;;1.20;1.10;;;;;;;18.91;56.96;100615.69;4962993;28;20249;-74
2022/06/01 11:06:00;;;;;;;1.30;1.20;;;;;;;19.20;58.16;100609.56;4968293;28;20236;-73
2022/06/01 11:08:40;;;;;;;2.33;1.00;;;;;;;19.51;57.33;100602.31;4964489;28;20532;-74
2022/06/01 11:11:12;;;;;;;1.27;1.10;;;;;;;19.80;55.11;100603.97;4966202;28;20226;-73
2022/06/01 11:13:59;;;;;;;1.27;1.17;;;;;;;19.62;51.95;100618.38;4959287;28;20213;-74
2022/06/01 11:16:40;;;;;;;1.23;0.93;;;;;;;19.66;51.76;100596.91;4962236;28;20251;-73
2022/06/01 11:19:20;;;;;;;0.90;0.90;;;;;;;19.80;52.04;100606.59;4967351;28;20212;-74
2022/06/01 11:21:56;;;;;;;0.80;0.80;;;;;;;19.69;48.36;100614.38;4966486;28;20205;-74
2022/06/01 11:24:39;;;;;;;0.80;0.80;;;;;;;19.53;49.24;100618.97;4959632;28;20194;-74
2022/06/01 11:27:22;;;;;;;1.20;0.80;;;;;;;19.47;50.16;100614.88;4949886;28;20702;-73
2022/06/01 11:30:03;;;;;;;1.47;0.90;;;;;;;19.39;49.24;100620.66;4964100;28;20851;-73
2022/06/01 11:32:36;;;;;;;1.23;0.90;;;;;;;19.52;52.89;100611.97;4965224;28;20284;-73
2022/06/01 11:35:08;;;;;;;1.10;1.00;;;;;;;19.75;50.66;100606.09;4965984;28;20203;-74
2022/06/01 11:37:40;;;;;;;0.90;0.90;;;;;;;19.99;52.11;100602.78;4967480;28;20563;-73
2022/06/01 11:40:12;;;;;;;0.90;0.90;;;;;;;20.24;51.29;100604.63;4962877;28;20202;-72
2022/06/01 11:42:44;;;;;;;1.27;0.97;;;;;;;20.35;50.97;100607.41;4951992;28;20820;-74
2022/06/01 11:45:17;;;;;;;0.83;0.80;;;;;;;20.38;50.67;100607.19;4944020;28;20870;-74
2022/06/01 11:47:50;;;;;;;1.17;0.87;;;;;;;20.34;51.02;100620.75;4956382;28;20758;-72
2022/06/01 11:50:25;;;;;;;0.97;0.80;;;;;;;20.33;50.68;100619.88;4956087;28;21001;-74
2022/06/01 11:52:58;;;;;;;0.90;0.90;;;;;;;20.35;48.19;100610.06;4958999;28;20193;-74
2022/06/01 11:55:43;;;;;;;1.30;0.67;;;;;;;20.42;49.88;100607.81;4961128;28;20304;-74
2022/06/01 11:58:11;;;;;;;2.50;0.90;;;;;;;20.28;47.22;100613.22;4961310;28;20210;-74
2022/06/01 12:00:43;;;;;;;0.83;0.80;;;;;;;20.46;49.36;100600.56;4960059;28;20277;-74
2022/06/01 12:03:40;;;;;;;0.70;0.70;;;;;;;20.42;46.09;100597.25;4966628;28;20256;-74